Ibiraiaras, Brazil
Current Conditions -  °F | °C
As of 6:00 PM on Friday 31 Oct 2014 (Local Time) from SBPF Reporting Station
Scattered Clouds Scattered Clouds  
Wind Chill: 81°   Ceiling: Unl
Heat Index: 83°   Visibility: 6mi
Dew Point: 66°   Wind: 2mph
Humidity: 61%   Direction: 290°WNW
Pressure: 29.91"   Gusts: NA
Location:  28.41°S, 51.72°W
Report Text: SBPF 312000Z 29002KT 9999 SCT035 27/19 Q1013
Loading
Personal Weather Stations






























Interactive Weather Map New forecast layout! Learn more

10-Day Weather Forecast

Advertisements
Track Severe Weather on mobile